sensor_id;sensor_type;location;lat;lon;timestamp;P1;durP1;ratioP1;P2;durP2;ratioP2
8893;SDS011;4483;48.622;9.230;2024-03-02T00:00:36;10.03;;;5.37;;
8893;SDS011;4483;48.622;9.230;2024-03-02T00:03:03;7.60;;;5.53;;
8893;SDS011;4483;48.622;9.230;2024-03-02T00:05:30;6.57;;;5.83;;
8893;SDS011;4483;48.622;9.230;2024-03-02T00:07:58;7.23;;;6.07;;
8893;SDS011;4483;48.622;9.230;2024-03-02T00:10:26;8.37;;;5.70;;
8893;SDS011;4483;48.622;9.230;2024-03-02T00:12:57;9.43;;;6.50;;
8893;SDS011;4483;48.622;9.230;2024-03-02T00:15:30;5.90;;;5.20;;
8893;SDS011;4483;48.622;9.230;2024-03-02T00:18:07;8.27;;;5.63;;
8893;SDS011;4483;48.622;9.230;2024-03-02T00:20:36;6.30;;;4.97;;
8893;SDS011;4483;48.622;9.230;2024-03-02T00:23:05;6.97;;;5.70;;
8893;SDS011;4483;48.622;9.230;2024-03-02T00:25:36;6.87;;;5.70;;
8893;SDS011;4483;48.622;9.230;2024-03-02T00:28:04;8.37;;;5.83;;
8893;SDS011;4483;48.622;9.230;2024-03-02T00:30:41;9.37;;;6.40;;
8893;SDS011;4483;48.622;9.230;2024-03-02T00:33:23;9.43;;;6.30;;
8893;SDS011;4483;48.622;9.230;2024-03-02T00:35:52;8.67;;;6.00;;
8893;SDS011;4483;48.622;9.230;2024-03-02T00:38:21;7.50;;;5.60;;
8893;SDS011;4483;48.622;9.230;2024-03-02T00:40:48;8.90;;;6.20;;
8893;SDS011;4483;48.622;9.230;2024-03-02T00:43:38;9.07;;;6.10;;
8893;SDS011;4483;48.622;9.230;2024-03-02T00:46:08;6.50;;;5.33;;
8893;SDS011;4483;48.622;9.230;2024-03-02T00:48:37;8.23;;;5.63;;
8893;SDS011;4483;48.622;9.230;2024-03-02T00:51:04;7.73;;;5.80;;
8893;SDS011;4483;48.622;9.230;2024-03-02T00:53:32;7.30;;;5.67;;
8893;SDS011;4483;48.622;9.230;2024-03-02T00:55:58;8.13;;;5.90;;
8893;SDS011;4483;48.622;9.230;2024-03-02T00:58:25;7.53;;;5.70;;
8893;SDS011;4483;48.622;9.230;2024-03-02T01:00:52;9.77;;;6.20;;
8893;SDS011;4483;48.622;9.230;2024-03-02T01:03:19;8.70;;;5.80;;
8893;SDS011;4483;48.622;9.230;2024-03-02T01:05:45;9.73;;;5.70;;
8893;SDS011;4483;48.622;9.230;2024-03-02T01:08:12;7.43;;;6.20;;
8893;SDS011;4483;48.622;9.230;2024-03-02T01:10:40;8.13;;;6.23;;
8893;SDS011;4483;48.622;9.230;2024-03-02T01:13:06;6.87;;;5.83;;
8893;SDS011;4483;48.622;9.230;2024-03-02T01:15:33;6.43;;;5.80;;
8893;SDS011;4483;48.622;9.230;2024-03-02T01:18:00;8.73;;;6.47;;
8893;SDS011;4483;48.622;9.230;2024-03-02T01:20:26;10.00;;;5.80;;
8893;SDS011;4483;48.622;9.230;2024-03-02T01:22:53;7.27;;;4.93;;
8893;SDS011;4483;48.622;9.230;2024-03-02T01:25:20;8.70;;;6.43;;
8893;SDS011;4483;48.622;9.230;2024-03-02T01:27:48;8.20;;;5.90;;
8893;SDS011;4483;48.622;9.230;2024-03-02T01:30:15;9.33;;;5.83;;
8893;SDS011;4483;48.622;9.230;2024-03-02T01:32:41;8.97;;;5.67;;
8893;SDS011;4483;48.622;9.230;2024-03-02T01:35:08;7.50;;;5.97;;
8893;SDS011;4483;48.622;9.230;2024-03-02T01:37:35;9.43;;;6.03;;
8893;SDS011;4483;48.622;9.230;2024-03-02T01:40:01;6.33;;;5.37;;
8893;SDS011;4483;48.622;9.230;2024-03-02T01:42:33;9.23;;;5.90;;
8893;SDS011;4483;48.622;9.230;2024-03-02T01:45:01;7.53;;;6.00;;
8893;SDS011;4483;48.622;9.230;2024-03-02T01:47:28;7.07;;;5.63;;
8893;SDS011;4483;48.622;9.230;2024-03-02T01:49:55;7.83;;;5.30;;
8893;SDS011;4483;48.622;9.230;2024-03-02T01:52:21;7.40;;;5.47;;
8893;SDS011;4483;48.622;9.230;2024-03-02T01:54:48;6.83;;;5.07;;
8893;SDS011;4483;48.622;9.230;2024-03-02T01:57:15;6.27;;;4.97;;
8893;SDS011;4483;48.622;9.230;2024-03-02T01:59:42;10.70;;;5.13;;
8893;SDS011;4483;48.622;9.230;2024-03-02T02:02:10;6.30;;;5.23;;
8893;SDS011;4483;48.622;9.230;2024-03-02T02:04:37;7.07;;;5.93;;
8893;SDS011;4483;48.622;9.230;2024-03-02T02:07:04;6.33;;;5.40;;
8893;SDS011;4483;48.622;9.230;2024-03-02T02:09:31;6.07;;;5.03;;
8893;SDS011;4483;48.622;9.230;2024-03-02T02:11:58;7.07;;;5.57;;
8893;SDS011;4483;48.622;9.230;2024-03-02T02:14:25;9.73;;;6.23;;
8893;SDS011;4483;48.622;9.230;2024-03-02T02:16:52;7.30;;;5.20;;
8893;SDS011;4483;48.622;9.230;2024-03-02T02:19:20;9.47;;;5.10;;
8893;SDS011;4483;48.622;9.230;2024-03-02T02:21:48;6.77;;;5.10;;
8893;SDS011;4483;48.622;9.230;2024-03-02T02:24:14;6.93;;;4.67;;
8893;SDS011;4483;48.622;9.230;2024-03-02T02:26:41;5.73;;;5.13;;
8893;SDS011;4483;48.622;9.230;2024-03-02T02:29:07;5.50;;;4.73;;
8893;SDS011;4483;48.622;9.230;2024-03-02T02:31:36;8.47;;;5.00;;
8893;SDS011;4483;48.622;9.230;2024-03-02T02:34:04;8.07;;;4.87;;
8893;SDS011;4483;48.622;9.230;2024-03-02T02:36:31;5.50;;;4.90;;
8893;SDS011;4483;48.622;9.230;2024-03-02T02:38:59;6.83;;;5.30;;
8893;SDS011;4483;48.622;9.230;2024-03-02T02:41:29;7.67;;;5.20;;
8893;SDS011;4483;48.622;9.230;2024-03-02T02:43:56;6.63;;;5.10;;
8893;SDS011;4483;48.622;9.230;2024-03-02T02:46:23;6.57;;;5.27;;
8893;SDS011;4483;48.622;9.230;2024-03-02T02:48:49;6.07;;;5.10;;
8893;SDS011;4483;48.622;9.230;2024-03-02T02:51:18;8.17;;;5.00;;
8893;SDS011;4483;48.622;9.230;2024-03-02T02:53:44;7.30;;;5.43;;
8893;SDS011;4483;48.622;9.230;2024-03-02T02:56:12;7.80;;;5.33;;
8893;SDS011;4483;48.622;9.230;2024-03-02T02:58:39;6.03;;;4.87;;
8893;SDS011;4483;48.622;9.230;2024-03-02T03:01:06;8.97;;;5.20;;
8893;SDS011;4483;48.622;9.230;2024-03-02T03:03:33;6.47;;;4.97;;
8893;SDS011;4483;48.622;9.230;2024-03-02T03:06:00;8.27;;;4.87;;
8893;SDS011;4483;48.622;9.230;2024-03-02T03:08:27;5.53;;;4.90;;
8893;SDS011;4483;48.622;9.230;2024-03-02T03:10:54;5.70;;;5.00;;
8893;SDS011;4483;48.622;9.230;2024-03-02T03:13:24;6.07;;;5.30;;
8893;SDS011;4483;48.622;9.230;2024-03-02T03:15:51;6.30;;;4.63;;
8893;SDS011;4483;48.622;9.230;2024-03-02T03:18:18;7.93;;;4.90;;
8893;SDS011;4483;48.622;9.230;2024-03-02T03:20:45;5.67;;;4.27;;
8893;SDS011;4483;48.622;9.230;2024-03-02T03:23:11;5.60;;;4.77;;
8893;SDS011;4483;48.622;9.230;2024-03-02T03:25:40;7.57;;;4.47;;
8893;SDS011;4483;48.622;9.230;2024-03-02T03:28:07;7.73;;;4.83;;
8893;SDS011;4483;48.622;9.230;2024-03-02T03:30:36;5.60;;;4.30;;
8893;SDS011;4483;48.622;9.230;2024-03-02T03:33:02;7.67;;;4.40;;
8893;SDS011;4483;48.622;9.230;2024-03-02T03:35:31;5.13;;;4.47;;
8893;SDS011;4483;48.622;9.230;2024-03-02T03:37:57;6.67;;;4.10;;
8893;SDS011;4483;48.622;9.230;2024-03-02T03:40:24;5.97;;;4.40;;
8893;SDS011;4483;48.622;9.230;2024-03-02T03:42:51;4.90;;;4.13;;
8893;SDS011;4483;48.622;9.230;2024-03-02T03:45:18;7.20;;;4.23;;
8893;SDS011;4483;48.622;9.230;2024-03-02T03:47:46;4.60;;;4.20;;
8893;SDS011;4483;48.622;9.230;2024-03-02T03:50:13;4.57;;;3.87;;
8893;SDS011;4483;48.622;9.230;2024-03-02T03:52:40;4.33;;;3.90;;
8893;SDS011;4483;48.622;9.230;2024-03-02T03:55:07;7.90;;;4.80;;
8893;SDS011;4483;48.622;9.230;2024-03-02T03:57:35;5.57;;;4.50;;
8893;SDS011;4483;48.622;9.230;2024-03-02T04:00:02;5.03;;;4.40;;
8893;SDS011;4483;48.622;9.230;2024-03-02T04:02:29;7.43;;;4.60;;
8893;SDS011;4483;48.622;9.230;2024-03-02T04:04:57;3.97;;;3.57;;
8893;SDS011;4483;48.622;9.230;2024-03-02T04:07:23;4.93;;;4.10;;
8893;SDS011;4483;48.622;9.230;2024-03-02T04:09:50;8.23;;;5.07;;
8893;SDS011;4483;48.622;9.230;2024-03-02T04:12:17;10.23;;;4.63;;
8893;SDS011;4483;48.622;9.230;2024-03-02T04:14:43;6.77;;;4.53;;
8893;SDS011;4483;48.622;9.230;2024-03-02T04:17:10;6.57;;;4.77;;
8893;SDS011;4483;48.622;9.230;2024-03-02T04:19:36;4.67;;;4.00;;
8893;SDS011;4483;48.622;9.230;2024-03-02T04:22:04;6.93;;;4.70;;
8893;SDS011;4483;48.622;9.230;2024-03-02T04:24:31;8.77;;;5.77;;
8893;SDS011;4483;48.622;9.230;2024-03-02T04:26:57;6.03;;;4.03;;
8893;SDS011;4483;48.622;9.230;2024-03-02T04:29:24;6.67;;;4.70;;
8893;SDS011;4483;48.622;9.230;2024-03-02T04:31:50;6.47;;;4.60;;
8893;SDS011;4483;48.622;9.230;2024-03-02T04:34:17;6.67;;;5.10;;
8893;SDS011;4483;48.622;9.230;2024-03-02T04:36:44;6.30;;;4.83;;
8893;SDS011;4483;48.622;9.230;2024-03-02T04:39:11;5.83;;;4.73;;
8893;SDS011;4483;48.622;9.230;2024-03-02T04:41:38;6.13;;;4.73;;
8893;SDS011;4483;48.622;9.230;2024-03-02T04:44:05;5.60;;;4.63;;
8893;SDS011;4483;48.622;9.230;2024-03-02T04:46:33;5.63;;;4.40;;
8893;SDS011;4483;48.622;9.230;2024-03-02T04:48:59;10.30;;;4.43;;
8893;SDS011;4483;48.622;9.230;2024-03-02T04:51:26;5.10;;;4.13;;
8893;SDS011;4483;48.622;9.230;2024-03-02T04:53:52;6.20;;;4.47;;
8893;SDS011;4483;48.622;9.230;2024-03-02T04:56:20;4.93;;;4.17;;
8893;SDS011;4483;48.622;9.230;2024-03-02T04:59:05;6.70;;;4.30;;
8893;SDS011;4483;48.622;9.230;2024-03-02T05:01:32;5.03;;;4.53;;
8893;SDS011;4483;48.622;9.230;2024-03-02T05:03:59;6.70;;;4.40;;
8893;SDS011;4483;48.622;9.230;2024-03-02T05:06:25;5.30;;;4.50;;
8893;SDS011;4483;48.622;9.230;2024-03-02T05:08:52;5.97;;;4.40;;
8893;SDS011;4483;48.622;9.230;2024-03-02T05:11:18;6.90;;;4.30;;
8893;SDS011;4483;48.622;9.230;2024-03-02T05:14:13;6.63;;;4.60;;
8893;SDS011;4483;48.622;9.230;2024-03-02T05:16:39;10.70;;;4.60;;
8893;SDS011;4483;48.622;9.230;2024-03-02T05:19:06;6.03;;;4.13;;
8893;SDS011;4483;48.622;9.230;2024-03-02T05:21:33;9.07;;;4.60;;
8893;SDS011;4483;48.622;9.230;2024-03-02T05:24:01;8.37;;;4.17;;
8893;SDS011;4483;48.622;9.230;2024-03-02T05:26:28;5.70;;;3.87;;
8893;SDS011;4483;48.622;9.230;2024-03-02T05:28:55;6.77;;;4.90;;
8893;SDS011;4483;48.622;9.230;2024-03-02T05:31:22;7.87;;;4.53;;
8893;SDS011;4483;48.622;9.230;2024-03-02T05:33:48;4.03;;;3.63;;
8893;SDS011;4483;48.622;9.230;2024-03-02T05:36:15;6.83;;;4.53;;
8893;SDS011;4483;48.622;9.230;2024-03-02T05:38:42;5.87;;;4.03;;
8893;SDS011;4483;48.622;9.230;2024-03-02T05:41:08;8.97;;;4.37;;
8893;SDS011;4483;48.622;9.230;2024-03-02T05:43:36;5.90;;;4.20;;
8893;SDS011;4483;48.622;9.230;2024-03-02T05:46:03;4.20;;;3.70;;
8893;SDS011;4483;48.622;9.230;2024-03-02T05:48:29;6.57;;;4.47;;
8893;SDS011;4483;48.622;9.230;2024-03-02T05:50:56;7.40;;;4.67;;
8893;SDS011;4483;48.622;9.230;2024-03-02T05:53:22;5.23;;;4.07;;
8893;SDS011;4483;48.622;9.230;2024-03-02T05:55:49;7.27;;;4.27;;
8893;SDS011;4483;48.622;9.230;2024-03-02T05:58:18;5.07;;;4.57;;
8893;SDS011;4483;48.622;9.230;2024-03-02T06:00:57;5.30;;;4.60;;
8893;SDS011;4483;48.622;9.230;2024-03-02T06:03:24;13.17;;;5.00;;
8893;SDS011;4483;48.622;9.230;2024-03-02T06:05:50;5.97;;;5.00;;
8893;SDS011;4483;48.622;9.230;2024-03-02T06:08:17;6.90;;;5.00;;
8893;SDS011;4483;48.622;9.230;2024-03-02T06:10:44;7.10;;;5.37;;
8893;SDS011;4483;48.622;9.230;2024-03-02T06:13:11;5.03;;;4.43;;
8893;SDS011;4483;48.622;9.230;2024-03-02T06:15:37;6.60;;;4.67;;
8893;SDS011;4483;48.622;9.230;2024-03-02T06:18:05;6.10;;;4.50;;
8893;SDS011;4483;48.622;9.230;2024-03-02T06:20:33;6.63;;;4.80;;
8893;SDS011;4483;48.622;9.230;2024-03-02T06:22:59;6.20;;;4.87;;
8893;SDS011;4483;48.622;9.230;2024-03-02T06:25:26;6.57;;;4.40;;
8893;SDS011;4483;48.622;9.230;2024-03-02T06:27:53;5.63;;;4.33;;
8893;SDS011;4483;48.622;9.230;2024-03-02T06:30:19;8.37;;;4.60;;
8893;SDS011;4483;48.622;9.230;2024-03-02T06:32:45;9.13;;;4.57;;
8893;SDS011;4483;48.622;9.230;2024-03-02T06:35:13;5.17;;;4.03;;
8893;SDS011;4483;48.622;9.230;2024-03-02T06:37:40;5.30;;;4.40;;
8893;SDS011;4483;48.622;9.230;2024-03-02T06:40:07;11.07;;;4.40;;
8893;SDS011;4483;48.622;9.230;2024-03-02T06:42:34;6.53;;;4.87;;
8893;SDS011;4483;48.622;9.230;2024-03-02T06:45:01;6.30;;;4.40;;
8893;SDS011;4483;48.622;9.230;2024-03-02T06:47:28;6.23;;;4.27;;
8893;SDS011;4483;48.622;9.230;2024-03-02T06:49:54;6.73;;;4.90;;
8893;SDS011;4483;48.622;9.230;2024-03-02T06:52:23;6.60;;;4.63;;
8893;SDS011;4483;48.622;9.230;2024-03-02T06:54:50;7.60;;;4.93;;
8893;SDS011;4483;48.622;9.230;2024-03-02T06:57:16;6.30;;;4.97;;
8893;SDS011;4483;48.622;9.230;2024-03-02T06:59:44;8.13;;;4.73;;
8893;SDS011;4483;48.622;9.230;2024-03-02T07:02:11;6.10;;;5.10;;
8893;SDS011;4483;48.622;9.230;2024-03-02T07:04:38;6.23;;;4.97;;
8893;SDS011;4483;48.622;9.230;2024-03-02T07:07:05;5.90;;;4.77;;
8893;SDS011;4483;48.622;9.230;2024-03-02T07:09:33;6.97;;;5.37;;
8893;SDS011;4483;48.622;9.230;2024-03-02T07:12:00;6.73;;;5.27;;
8893;SDS011;4483;48.622;9.230;2024-03-02T07:14:27;11.30;;;5.17;;
8893;SDS011;4483;48.622;9.230;2024-03-02T07:17:20;7.73;;;5.10;;
8893;SDS011;4483;48.622;9.230;2024-03-02T07:19:47;6.03;;;5.30;;
8893;SDS011;4483;48.622;9.230;2024-03-02T07:22:14;7.97;;;4.90;;
8893;SDS011;4483;48.622;9.230;2024-03-02T07:24:42;6.37;;;5.33;;
8893;SDS011;4483;48.622;9.230;2024-03-02T07:27:10;7.07;;;5.20;;
8893;SDS011;4483;48.622;9.230;2024-03-02T07:29:38;6.83;;;5.03;;
8893;SDS011;4483;48.622;9.230;2024-03-02T07:32:05;7.97;;;5.13;;
8893;SDS011;4483;48.622;9.230;2024-03-02T07:34:33;6.37;;;4.87;;
8893;SDS011;4483;48.622;9.230;2024-03-02T07:37:00;5.23;;;4.73;;
8893;SDS011;4483;48.622;9.230;2024-03-02T07:39:26;6.77;;;4.57;;
8893;SDS011;4483;48.622;9.230;2024-03-02T07:41:55;7.17;;;5.17;;
8893;SDS011;4483;48.622;9.230;2024-03-02T07:44:22;8.43;;;4.97;;
8893;SDS011;4483;48.622;9.230;2024-03-02T07:46:49;6.93;;;4.60;;
8893;SDS011;4483;48.622;9.230;2024-03-02T07:49:16;5.83;;;4.70;;
8893;SDS011;4483;48.622;9.230;2024-03-02T07:51:42;7.37;;;5.10;;
8893;SDS011;4483;48.622;9.230;2024-03-02T07:54:09;6.53;;;4.50;;
8893;SDS011;4483;48.622;9.230;2024-03-02T07:56:36;6.20;;;5.03;;
8893;SDS011;4483;48.622;9.230;2024-03-02T07:59:04;5.90;;;5.13;;
8893;SDS011;4483;48.622;9.230;2024-03-02T08:01:32;8.73;;;5.07;;
8893;SDS011;4483;48.622;9.230;2024-03-02T08:04:00;6.30;;;5.00;;
8893;SDS011;4483;48.622;9.230;2024-03-02T08:06:28;6.47;;;5.40;;
8893;SDS011;4483;48.622;9.230;2024-03-02T08:08:56;9.23;;;5.80;;
8893;SDS011;4483;48.622;9.230;2024-03-02T08:11:23;7.13;;;5.03;;
8893;SDS011;4483;48.622;9.230;2024-03-02T08:13:50;7.97;;;6.70;;
8893;SDS011;4483;48.622;9.230;2024-03-02T08:16:18;7.30;;;6.03;;
8893;SDS011;4483;48.622;9.230;2024-03-02T08:18:45;8.20;;;6.80;;
8893;SDS011;4483;48.622;9.230;2024-03-02T08:21:12;9.80;;;6.80;;
8893;SDS011;4483;48.622;9.230;2024-03-02T08:23:39;6.33;;;5.47;;
8893;SDS011;4483;48.622;9.230;2024-03-02T08:26:07;6.77;;;5.80;;
8893;SDS011;4483;48.622;9.230;2024-03-02T08:28:33;6.87;;;5.77;;
8893;SDS011;4483;48.622;9.230;2024-03-02T08:31:02;10.13;;;6.27;;
8893;SDS011;4483;48.622;9.230;2024-03-02T08:33:30;8.65;;;6.65;;
8893;SDS011;4483;48.622;9.230;2024-03-02T08:35:56;9.63;;;6.00;;
8893;SDS011;4483;48.622;9.230;2024-03-02T08:38:23;6.90;;;5.63;;
8893;SDS011;4483;48.622;9.230;2024-03-02T08:40:50;7.40;;;5.93;;
8893;SDS011;4483;48.622;9.230;2024-03-02T08:43:17;9.97;;;6.23;;
8893;SDS011;4483;48.622;9.230;2024-03-02T08:45:44;7.43;;;6.10;;
8893;SDS011;4483;48.622;9.230;2024-03-02T08:48:12;10.60;;;8.07;;
8893;SDS011;4483;48.622;9.230;2024-03-02T08:50:40;7.93;;;6.63;;
8893;SDS011;4483;48.622;9.230;2024-03-02T08:53:07;9.10;;;5.83;;
8893;SDS011;4483;48.622;9.230;2024-03-02T08:55:33;8.03;;;5.97;;
8893;SDS011;4483;48.622;9.230;2024-03-02T08:58:00;6.53;;;5.83;;
8893;SDS011;4483;48.622;9.230;2024-03-02T09:00:27;6.37;;;5.73;;
8893;SDS011;4483;48.622;9.230;2024-03-02T09:02:53;6.47;;;5.87;;
8893;SDS011;4483;48.622;9.230;2024-03-02T09:05:20;7.57;;;5.97;;
8893;SDS011;4483;48.622;9.230;2024-03-02T09:07:48;7.93;;;6.23;;
8893;SDS011;4483;48.622;9.230;2024-03-02T09:10:15;8.10;;;6.43;;
8893;SDS011;4483;48.622;9.230;2024-03-02T09:12:42;11.37;;;5.80;;
8893;SDS011;4483;48.622;9.230;2024-03-02T09:15:09;8.20;;;6.30;;
8893;SDS011;4483;48.622;9.230;2024-03-02T09:17:36;10.07;;;7.47;;
8893;SDS011;4483;48.622;9.230;2024-03-02T09:20:02;7.00;;;5.60;;
8893;SDS011;4483;48.622;9.230;2024-03-02T09:22:30;5.30;;;4.80;;
8893;SDS011;4483;48.622;9.230;2024-03-02T09:25:01;5.53;;;5.03;;
8893;SDS011;4483;48.622;9.230;2024-03-02T09:27:27;5.43;;;4.90;;
8893;SDS011;4483;48.622;9.230;2024-03-02T09:29:54;4.97;;;4.57;;
8893;SDS011;4483;48.622;9.230;2024-03-02T09:32:20;5.40;;;4.57;;
8893;SDS011;4483;48.622;9.230;2024-03-02T09:34:48;4.83;;;4.47;;
8893;SDS011;4483;48.622;9.230;2024-03-02T09:37:15;6.83;;;4.40;;
8893;SDS011;4483;48.622;9.230;2024-03-02T09:39:43;4.33;;;3.93;;
8893;SDS011;4483;48.622;9.230;2024-03-02T09:42:11;4.80;;;4.33;;
8893;SDS011;4483;48.622;9.230;2024-03-02T09:44:38;4.53;;;4.13;;
8893;SDS011;4483;48.622;9.230;2024-03-02T09:47:06;5.43;;;3.83;;
8893;SDS011;4483;48.622;9.230;2024-03-02T09:49:33;4.47;;;3.97;;
8893;SDS011;4483;48.622;9.230;2024-03-02T09:52:00;4.10;;;3.80;;
8893;SDS011;4483;48.622;9.230;2024-03-02T09:54:29;4.10;;;3.70;;
8893;SDS011;4483;48.622;9.230;2024-03-02T09:56:55;4.50;;;3.80;;
8893;SDS011;4483;48.622;9.230;2024-03-02T09:59:24;4.50;;;4.10;;
8893;SDS011;4483;48.622;9.230;2024-03-02T10:01:57;4.37;;;3.80;;
8893;SDS011;4483;48.622;9.230;2024-03-02T10:04:25;4.47;;;4.07;;
8893;SDS011;4483;48.622;9.230;2024-03-02T10:06:55;4.55;;;4.03;;
8893;SDS011;4483;48.622;9.230;2024-03-02T10:09:36;5.13;;;4.45;;
8893;SDS011;4483;48.622;9.230;2024-03-02T10:12:03;4.30;;;3.85;;
8893;SDS011;4483;48.622;9.230;2024-03-02T10:14:32;4.38;;;3.97;;
8893;SDS011;4483;48.622;9.230;2024-03-02T10:17:01;4.35;;;4.00;;
8893;SDS011;4483;48.622;9.230;2024-03-02T10:19:29;4.03;;;3.70;;
8893;SDS011;4483;48.622;9.230;2024-03-02T10:21:58;3.85;;;3.55;;
8893;SDS011;4483;48.622;9.230;2024-03-02T10:24:25;6.88;;;3.90;;
8893;SDS011;4483;48.622;9.230;2024-03-02T10:26:52;4.60;;;3.75;;
8893;SDS011;4483;48.622;9.230;2024-03-02T10:29:19;4.15;;;3.85;;
8893;SDS011;4483;48.622;9.230;2024-03-02T10:31:47;3.80;;;3.50;;
8893;SDS011;4483;48.622;9.230;2024-03-02T10:34:13;3.92;;;3.63;;
8893;SDS011;4483;48.622;9.230;2024-03-02T10:36:41;4.45;;;3.45;;
8893;SDS011;4483;48.622;9.230;2024-03-02T10:39:09;3.13;;;2.92;;
8893;SDS011;4483;48.622;9.230;2024-03-02T10:41:37;3.45;;;3.13;;
8893;SDS011;4483;48.622;9.230;2024-03-02T10:44:05;3.28;;;3.08;;
8893;SDS011;4483;48.622;9.230;2024-03-02T10:46:33;3.55;;;3.28;;
8893;SDS011;4483;48.622;9.230;2024-03-02T10:49:02;3.50;;;3.20;;
8893;SDS011;4483;48.622;9.230;2024-03-02T10:51:31;3.65;;;3.25;;
8893;SDS011;4483;48.622;9.230;2024-03-02T10:54:01;4.68;;;3.30;;
8893;SDS011;4483;48.622;9.230;2024-03-02T10:56:29;2.90;;;2.70;;
8893;SDS011;4483;48.622;9.230;2024-03-02T10:59:01;4.18;;;3.38;;
8893;SDS011;4483;48.622;9.230;2024-03-02T11:01:29;3.15;;;2.95;;
8893;SDS011;4483;48.622;9.230;2024-03-02T11:03:58;4.25;;;3.10;;
8893;SDS011;4483;48.622;9.230;2024-03-02T11:06:29;3.10;;;2.90;;
8893;SDS011;4483;48.622;9.230;2024-03-02T11:08:58;3.22;;;3.03;;
8893;SDS011;4483;48.622;9.230;2024-03-02T11:11:34;3.17;;;2.97;;
8893;SDS011;4483;48.622;9.230;2024-03-02T11:14:07;4.28;;;2.50;;
8893;SDS011;4483;48.622;9.230;2024-03-02T11:16:37;2.70;;;2.60;;
8893;SDS011;4483;48.622;9.230;2024-03-02T11:19:06;2.38;;;2.28;;
8893;SDS011;4483;48.622;9.230;2024-03-02T11:21:36;2.58;;;2.40;;
8893;SDS011;4483;48.622;9.230;2024-03-02T11:26:58;2.33;;;2.15;;
8893;SDS011;4483;48.622;9.230;2024-03-02T11:32:13;4.80;;;2.35;;
8893;SDS011;4483;48.622;9.230;2024-03-02T11:34:44;2.08;;;1.95;;
8893;SDS011;4483;48.622;9.230;2024-03-02T11:37:14;3.38;;;1.80;;
8893;SDS011;4483;48.622;9.230;2024-03-02T11:39:42;9.35;;;2.00;;
8893;SDS011;4483;48.622;9.230;2024-03-02T11:42:10;2.03;;;1.92;;
8893;SDS011;4483;48.622;9.230;2024-03-02T11:44:39;6.20;;;1.85;;
8893;SDS011;4483;48.622;9.230;2024-03-02T11:47:07;2.20;;;2.00;;
8893;SDS011;4483;48.622;9.230;2024-03-02T11:49:37;1.73;;;1.63;;
8893;SDS011;4483;48.622;9.230;2024-03-02T11:52:05;1.85;;;1.65;;
8893;SDS011;4483;48.622;9.230;2024-03-02T11:54:34;1.65;;;1.55;;
8893;SDS011;4483;48.622;9.230;2024-03-02T11:57:04;1.88;;;1.77;;
8893;SDS011;4483;48.622;9.230;2024-03-02T11:59:31;4.20;;;1.70;;
8893;SDS011;4483;48.622;9.230;2024-03-02T12:01:58;2.17;;;1.70;;
8893;SDS011;4483;48.622;9.230;2024-03-02T12:04:26;2.47;;;2.28;;
8893;SDS011;4483;48.622;9.230;2024-03-02T12:06:56;2.20;;;2.00;;
8893;SDS011;4483;48.622;9.230;2024-03-02T12:09:25;2.20;;;2.10;;
8893;SDS011;4483;48.622;9.230;2024-03-02T12:12:02;1.95;;;1.85;;
8893;SDS011;4483;48.622;9.230;2024-03-02T12:14:30;2.00;;;1.90;;
8893;SDS011;4483;48.622;9.230;2024-03-02T12:16:57;1.85;;;1.75;;
8893;SDS011;4483;48.622;9.230;2024-03-02T12:19:24;1.75;;;1.70;;
8893;SDS011;4483;48.622;9.230;2024-03-02T12:21:52;2.88;;;1.50;;
8893;SDS011;4483;48.622;9.230;2024-03-02T12:24:18;2.05;;;1.73;;
8893;SDS011;4483;48.622;9.230;2024-03-02T12:26:44;1.95;;;1.67;;
8893;SDS011;4483;48.622;9.230;2024-03-02T12:29:14;1.60;;;1.50;;
8893;SDS011;4483;48.622;9.230;2024-03-02T12:31:41;1.90;;;1.80;;
8893;SDS011;4483;48.622;9.230;2024-03-02T12:34:08;1.50;;;1.40;;
8893;SDS011;4483;48.622;9.230;2024-03-02T12:36:36;2.10;;;1.60;;
8893;SDS011;4483;48.622;9.230;2024-03-02T12:39:04;1.20;;;1.20;;
8893;SDS011;4483;48.622;9.230;2024-03-02T12:41:30;2.63;;;1.40;;
8893;SDS011;4483;48.622;9.230;2024-03-02T12:43:57;1.20;;;1.20;;
8893;SDS011;4483;48.622;9.230;2024-03-02T12:46:25;1.42;;;1.30;;
8893;SDS011;4483;48.622;9.230;2024-03-02T12:48:52;1.60;;;1.50;;
8893;SDS011;4483;48.622;9.230;2024-03-02T12:51:18;1.00;;;1.00;;
8893;SDS011;4483;48.622;9.230;2024-03-02T12:53:45;1.40;;;1.10;;
8893;SDS011;4483;48.622;9.230;2024-03-02T12:56:12;4.65;;;1.10;;
8893;SDS011;4483;48.622;9.230;2024-03-02T12:58:39;1.10;;;1.10;;
8893;SDS011;4483;48.622;9.230;2024-03-02T13:01:06;1.00;;;1.00;;
8893;SDS011;4483;48.622;9.230;2024-03-02T13:03:36;0.93;;;0.93;;
8893;SDS011;4483;48.622;9.230;2024-03-02T13:06:04;1.08;;;0.98;;
8893;SDS011;4483;48.622;9.230;2024-03-02T13:08:31;1.13;;;1.13;;
8893;SDS011;4483;48.622;9.230;2024-03-02T13:10:58;0.90;;;0.90;;
8893;SDS011;4483;48.622;9.230;2024-03-02T13:13:25;1.20;;;1.05;;
8893;SDS011;4483;48.622;9.230;2024-03-02T13:15:54;1.10;;;1.10;;
8893;SDS011;4483;48.622;9.230;2024-03-02T13:18:21;0.93;;;0.93;;
8893;SDS011;4483;48.622;9.230;2024-03-02T13:20:49;1.00;;;0.90;;
8893;SDS011;4483;48.622;9.230;2024-03-02T13:23:16;1.52;;;0.95;;
8893;SDS011;4483;48.622;9.230;2024-03-02T13:25:43;1.02;;;1.02;;
8893;SDS011;4483;48.622;9.230;2024-03-02T13:28:12;0.90;;;0.90;;
8893;SDS011;4483;48.622;9.230;2024-03-02T13:30:39;0.82;;;0.82;;
8893;SDS011;4483;48.622;9.230;2024-03-02T13:33:06;0.95;;;0.95;;
8893;SDS011;4483;48.622;9.230;2024-03-02T13:35:32;1.00;;;1.00;;
8893;SDS011;4483;48.622;9.230;2024-03-02T13:38:00;1.10;;;1.00;;
8893;SDS011;4483;48.622;9.230;2024-03-02T13:40:27;0.90;;;0.90;;
8893;SDS011;4483;48.622;9.230;2024-03-02T13:42:55;1.02;;;1.02;;
8893;SDS011;4483;48.622;9.230;2024-03-02T13:45:22;1.70;;;1.27;;
8893;SDS011;4483;48.622;9.230;2024-03-02T13:47:48;1.10;;;1.10;;
8893;SDS011;4483;48.622;9.230;2024-03-02T13:50:15;0.95;;;0.95;;
8893;SDS011;4483;48.622;9.230;2024-03-02T13:52:42;1.20;;;1.20;;
8893;SDS011;4483;48.622;9.230;2024-03-02T13:55:09;0.98;;;0.98;;
8893;SDS011;4483;48.622;9.230;2024-03-02T13:57:36;0.82;;;0.82;;
8893;SDS011;4483;48.622;9.230;2024-03-02T14:00:03;0.93;;;0.93;;
8893;SDS011;4483;48.622;9.230;2024-03-02T14:02:35;1.52;;;1.00;;
8893;SDS011;4483;48.622;9.230;2024-03-02T14:05:02;0.98;;;0.98;;
8893;SDS011;4483;48.622;9.230;2024-03-02T14:07:29;0.85;;;0.85;;
8893;SDS011;4483;48.622;9.230;2024-03-02T14:09:55;2.90;;;0.95;;
8893;SDS011;4483;48.622;9.230;2024-03-02T14:12:24;0.90;;;0.90;;
8893;SDS011;4483;48.622;9.230;2024-03-02T14:14:51;5.65;;;1.35;;
8893;SDS011;4483;48.622;9.230;2024-03-02T14:17:20;1.48;;;1.02;;
8893;SDS011;4483;48.622;9.230;2024-03-02T14:19:47;0.82;;;0.82;;
8893;SDS011;4483;48.622;9.230;2024-03-02T14:22:13;1.02;;;0.88;;
8893;SDS011;4483;48.622;9.230;2024-03-02T14:24:42;0.90;;;0.90;;
8893;SDS011;4483;48.622;9.230;2024-03-02T14:27:09;1.55;;;0.90;;
8893;SDS011;4483;48.622;9.230;2024-03-02T14:29:37;1.00;;;1.00;;
8893;SDS011;4483;48.622;9.230;2024-03-02T14:32:05;1.77;;;1.00;;
8893;SDS011;4483;48.622;9.230;2024-03-02T14:34:32;0.80;;;0.80;;
8893;SDS011;4483;48.622;9.230;2024-03-02T14:36:59;1.27;;;0.93;;
8893;SDS011;4483;48.622;9.230;2024-03-02T14:39:26;1.02;;;1.00;;
8893;SDS011;4483;48.622;9.230;2024-03-02T14:41:53;3.38;;;1.35;;
8893;SDS011;4483;48.622;9.230;2024-03-02T14:44:20;2.50;;;1.17;;
8893;SDS011;4483;48.622;9.230;2024-03-02T14:46:48;1.23;;;1.17;;
8893;SDS011;4483;48.622;9.230;2024-03-02T14:49:15;0.90;;;0.90;;
8893;SDS011;4483;48.622;9.230;2024-03-02T14:51:42;0.77;;;0.77;;
8893;SDS011;4483;48.622;9.230;2024-03-02T14:54:09;0.93;;;0.90;;
8893;SDS011;4483;48.622;9.230;2024-03-02T14:56:36;1.02;;;1.02;;
8893;SDS011;4483;48.622;9.230;2024-03-02T14:59:03;1.02;;;1.02;;
8893;SDS011;4483;48.622;9.230;2024-03-02T15:01:29;0.93;;;0.93;;
8893;SDS011;4483;48.622;9.230;2024-03-02T15:03:57;1.73;;;1.00;;
8893;SDS011;4483;48.622;9.230;2024-03-02T15:06:24;2.35;;;1.10;;
8893;SDS011;4483;48.622;9.230;2024-03-02T15:08:51;1.02;;;1.02;;
8893;SDS011;4483;48.622;9.230;2024-03-02T15:11:19;0.90;;;0.90;;
8893;SDS011;4483;48.622;9.230;2024-03-02T15:13:47;1.40;;;1.17;;
8893;SDS011;4483;48.622;9.230;2024-03-02T15:16:13;2.42;;;1.70;;
8893;SDS011;4483;48.622;9.230;2024-03-02T15:18:40;3.30;;;1.20;;
8893;SDS011;4483;48.622;9.230;2024-03-02T15:21:08;1.00;;;1.00;;
8893;SDS011;4483;48.622;9.230;2024-03-02T15:23:35;1.20;;;1.10;;